Time;durP1;ratioP1;P1;durP2;ratioP2;P2;SDS_P1;SDS_P2;PMS_P1;PMS_P2;Temp;Humidity;BMP_temperature;BMP_pressure;BME280_temperature;BME280_humidity;BME280_pressure;Samples;Min_cycle;Max_cycle;Signal;HPM_P1;HPM_P2
2023/10/23 00:02:25;;;;;;;11.00;4.88;;;460.80;2380.80;;;;;;5095009;28;20016;-76
2023/10/23 00:04:51;;;;;;;10.35;5.15;;;460.80;2380.80;;;;;;5103233;28;20024;-76
2023/10/23 00:07:17;;;;;;;9.90;4.57;;;460.90;2380.80;;;;;;5108278;28;20488;-76
2023/10/23 00:09:43;;;;;;;11.50;4.95;;;461.00;2380.80;;;;;;5100168;28;20020;-76
2023/10/23 00:12:09;;;;;;;10.32;4.70;;;461.10;2380.80;;;;;;5106004;28;20712;-76
2023/10/23 00:14:35;;;;;;;12.13;5.10;;;460.90;2380.80;;;;;;5098017;28;20374;-76
2023/10/23 00:17:01;;;;;;;14.70;7.38;;;460.80;2380.80;;;;;;5099344;28;20020;-76
2023/10/23 00:19:27;;;;;;;17.60;6.15;;;460.80;2380.80;;;;;;5101988;28;20028;-76
2023/10/23 00:21:53;;;;;;;16.60;7.15;;;436.10;2355.20;;;;;;5103185;28;20122;-76
2023/10/23 00:24:20;;;;;;;11.20;5.43;;;436.10;2355.20;;;;;;5100258;28;20035;-76
2023/10/23 00:26:46;;;;;;;11.13;5.80;;;460.80;2380.80;;;;;;5079737;28;20470;-77
2023/10/23 00:29:12;;;;;;;19.05;8.73;;;460.90;2380.80;;;;;;5105457;28;20027;-76
2023/10/23 00:31:38;;;;;;;24.58;10.00;;;460.90;2380.80;;;;;;5087891;28;20020;-76
2023/10/23 00:34:04;;;;;;;13.55;6.28;;;461.00;2380.80;;;;;;5098550;28;20457;-76
2023/10/23 00:36:29;;;;;;;9.07;5.78;;;461.10;2380.80;;;;;;5083757;28;20023;-76
2023/10/23 00:38:55;;;;;;;11.77;5.80;;;461.10;2380.80;;;;;;5101595;28;20020;-76
2023/10/23 00:41:21;;;;;;;11.55;6.05;;;461.10;2380.80;;;;;;5102057;28;20023;-76
2023/10/23 00:43:47;;;;;;;14.27;6.38;;;461.10;2380.80;;;;;;5098132;28;20027;-76
2023/10/23 00:46:15;;;;;;;11.75;6.53;;;461.00;2380.80;;;;;;5094528;28;20462;-76
2023/10/23 00:48:42;;;;;;;13.98;6.60;;;461.00;2380.80;;;;;;5098875;28;20017;-76
2023/10/23 00:51:12;;;;;;;11.77;6.40;;;460.90;2380.80;;;;;;5099300;28;20032;-76
2023/10/23 00:53:40;;;;;;;12.85;5.55;;;460.90;2380.80;;;;;;5104753;28;20049;-76
2023/10/23 00:56:08;;;;;;;11.75;6.00;;;460.90;2380.80;;;;;;5097939;28;20020;-76
2023/10/23 00:58:39;;;;;;;10.05;5.88;;;460.90;2380.80;;;;;;5097032;28;20017;-76
2023/10/23 01:01:06;;;;;;;9.13;5.63;;;460.90;2380.80;;;;;;5087188;28;20024;-76
2023/10/23 01:03:32;;;;;;;12.48;5.93;;;461.00;2380.80;;;;;;5097757;28;20020;-76
2023/10/23 01:05:58;;;;;;;10.68;5.78;;;461.10;2380.80;;;;;;5098455;28;20028;-76
2023/10/23 01:08:24;;;;;;;13.35;6.10;;;460.90;2380.80;;;;;;5093456;28;20016;-76
2023/10/23 01:10:50;;;;;;;13.30;6.10;;;460.80;2380.80;;;;;;5101541;28;20461;-76
2023/10/23 01:13:17;;;;;;;11.02;6.32;;;460.80;2380.80;;;;;;5098234;28;20016;-75
2023/10/23 01:15:43;;;;;;;12.77;6.38;;;460.80;2380.80;;;;;;5080809;28;20032;-76
2023/10/23 01:18:08;;;;;;;15.02;6.47;;;460.90;2380.80;;;;;;5095044;28;20024;-76
2023/10/23 01:20:34;;;;;;;12.57;6.70;;;460.90;2380.80;;;;;;5102244;28;20024;-76
2023/10/23 01:23:02;;;;;;;16.30;6.55;;;461.00;2380.80;;;;;;5075225;28;20039;-76
2023/10/23 01:25:28;;;;;;;11.52;6.03;;;460.90;2380.80;;;;;;5096953;28;20065;-75
2023/10/23 01:27:54;;;;;;;19.77;7.82;;;460.90;2380.80;;;;;;5099102;28;20028;-76
2023/10/23 01:30:20;;;;;;;17.30;7.85;;;460.90;2380.80;;;;;;5101433;28;20539;-76
2023/10/23 01:32:46;;;;;;;11.57;6.20;;;460.90;2380.80;;;;;;5096093;28;20085;-76
2023/10/23 01:35:12;;;;;;;15.65;6.53;;;460.90;2380.80;;;;;;5083141;28;20415;-76
2023/10/23 01:37:40;;;;;;;12.48;6.88;;;460.90;2380.80;;;;;;5096174;28;20081;-76
2023/10/23 01:40:06;;;;;;;15.57;6.65;;;460.90;2380.80;;;;;;5097812;28;20086;-76
2023/10/23 01:42:32;;;;;;;11.40;6.57;;;460.90;2380.80;;;;;;5081373;28;20082;-76
2023/10/23 01:44:58;;;;;;;9.60;6.35;;;460.90;2380.80;;;;;;5104295;28;20032;-76
2023/10/23 01:47:26;;;;;;;12.27;7.18;;;460.90;2380.80;;;;;;5094689;28;20099;-76
2023/10/23 01:49:52;;;;;;;11.35;6.70;;;460.90;2380.80;;;;;;5097727;28;20107;-76
2023/10/23 01:52:18;;;;;;;10.77;6.60;;;460.90;2380.80;;;;;;5078999;28;20045;-76
2023/10/23 01:54:44;;;;;;;12.20;6.75;;;436.10;2355.20;;;;;;5089953;28;20024;-76
2023/10/23 01:57:13;;;;;;;12.77;7.18;;;460.80;2380.80;;;;;;5090430;28;20027;-76
2023/10/23 01:59:39;;;;;;;14.77;7.97;;;460.80;2380.80;;;;;;5090267;28;20148;-76
2023/10/23 02:02:05;;;;;;;13.30;7.60;;;460.80;2380.80;;;;;;5092498;28;20519;-76
2023/10/23 02:04:31;;;;;;;13.80;7.35;;;460.80;2380.80;;;;;;5084992;28;20028;-76
2023/10/23 02:06:57;;;;;;;12.77;7.75;;;461.10;2380.80;;;;;;5092826;28;20023;-76
2023/10/23 02:09:23;;;;;;;13.68;7.22;;;460.80;2380.80;;;;;;5092503;28;20096;-76
2023/10/23 02:11:49;;;;;;;9.40;6.32;;;460.80;2380.80;;;;;;5092776;28;20517;-76
2023/10/23 02:14:15;;;;;;;15.57;7.40;;;460.80;2380.80;;;;;;5093023;28;20020;-76
2023/10/23 02:16:40;;;;;;;11.48;6.50;;;460.80;2380.80;;;;;;5092339;28;20024;-76
2023/10/23 02:19:06;;;;;;;12.60;6.70;;;460.80;2380.80;;;;;;5077007;28;20119;-75
2023/10/23 02:21:32;;;;;;;9.65;6.22;;;460.80;2380.80;;;;;;5092086;28;20469;-76
2023/10/23 02:23:58;;;;;;;15.15;6.70;;;460.80;2380.80;;;;;;5078395;28;20024;-76
2023/10/23 02:26:25;;;;;;;15.75;7.00;;;460.80;2380.80;;;;;;5076436;28;20063;-75
2023/10/23 02:28:51;;;;;;;11.10;6.32;;;436.10;2355.20;;;;;;5092128;28;20055;-76
2023/10/23 02:31:17;;;;;;;10.93;6.28;;;436.00;2355.20;;;;;;5092353;28;20024;-75
2023/10/23 02:33:43;;;;;;;7.75;5.75;;;436.00;2355.20;;;;;;5092457;28;20099;-75
2023/10/23 02:36:08;;;;;;;13.65;6.60;;;436.10;2355.20;;;;;;5091947;28;20103;-75
2023/10/23 02:38:34;;;;;;;11.73;6.22;;;460.80;2380.80;;;;;;5092404;28;20016;-75
2023/10/23 02:41:00;;;;;;;8.98;6.03;;;460.80;2380.80;;;;;;5091817;28;20416;-75
2023/10/23 02:43:26;;;;;;;13.45;6.88;;;460.80;2380.80;;;;;;5092145;28;20125;-75
2023/10/23 02:45:52;;;;;;;11.82;6.35;;;460.80;2380.80;;;;;;5091917;28;20393;-75
2023/10/23 02:48:17;;;;;;;12.07;5.82;;;460.80;2380.80;;;;;;5092430;28;20024;-75
2023/10/23 02:50:55;;;;;;;14.10;6.25;;;436.10;2355.20;;;;;;5091945;28;20024;-75
2023/10/23 02:53:21;;;;;;;11.25;6.47;;;436.00;2355.20;;;;;;5102376;28;20052;-75
2023/10/23 02:55:49;;;;;;;9.10;5.28;;;435.90;2355.20;;;;;;5099012;28;20020;-75
2023/10/23 02:58:16;;;;;;;13.90;6.03;;;436.00;2355.20;;;;;;5076738;28;20054;-76
2023/10/23 03:00:42;;;;;;;10.07;6.13;;;436.00;2355.20;;;;;;5099658;28;20077;-75
2023/10/23 03:03:11;;;;;;;10.63;6.55;;;435.90;2355.20;;;;;;5097931;28;20028;-76
2023/10/23 03:05:40;;;;;;;9.35;5.00;;;436.00;2355.20;;;;;;5106138;28;20032;-74
2023/10/23 03:08:06;;;;;;;9.80;6.03;;;436.10;2355.20;;;;;;5093113;28;20016;-75
2023/10/23 03:10:32;;;;;;;12.95;6.30;;;436.00;2355.20;;;;;;5104528;28;20024;-75
2023/10/23 03:12:58;;;;;;;10.48;5.75;;;435.90;2355.20;;;;;;5089290;28;20012;-75
2023/10/23 03:15:24;;;;;;;11.68;6.07;;;436.00;2355.20;;;;;;5101618;28;20152;-75
2023/10/23 03:17:51;;;;;;;12.07;6.25;;;436.00;2355.20;;;;;;5103393;28;20490;-75
2023/10/23 03:20:17;;;;;;;10.82;5.82;;;436.00;2355.20;;;;;;5105247;28;20026;-75
2023/10/23 03:22:43;;;;;;;10.23;6.20;;;435.90;2355.20;;;;;;5107107;28;20019;-76
2023/10/23 03:25:09;;;;;;;9.73;5.90;;;435.80;2355.20;;;;;;5103057;28;20551;-75
2023/10/23 03:27:35;;;;;;;7.60;5.82;;;435.80;2355.20;;;;;;5078965;28;20452;-75
2023/10/23 03:30:01;;;;;;;9.20;5.65;;;435.80;2355.20;;;;;;5107819;28;20051;-75
2023/10/23 03:32:27;;;;;;;12.48;5.43;;;435.80;2355.20;;;;;;5098380;28;20060;-75
2023/10/23 03:34:52;;;;;;;10.13;5.95;;;435.80;2355.20;;;;;;5095620;28;20012;-75
2023/10/23 03:37:18;;;;;;;12.82;6.45;;;435.80;2355.20;;;;;;5081598;28;20040;-76
2023/10/23 03:39:44;;;;;;;11.65;7.47;;;435.80;2355.20;;;;;;5080791;28;20024;-75
2023/10/23 03:42:10;;;;;;;11.55;6.30;;;435.70;2355.20;;;;;;5095445;28;20034;-75
2023/10/23 03:44:36;;;;;;;8.02;5.40;;;435.70;2355.20;;;;;;5102868;28;20027;-75
2023/10/23 03:47:02;;;;;;;8.75;5.32;;;435.80;2355.20;;;;;;5100326;28;20367;-75
2023/10/23 03:49:31;;;;;;;10.18;5.43;;;435.70;2355.20;;;;;;5081260;28;20038;-76
2023/10/23 03:51:56;;;;;;;9.23;5.60;;;435.60;2355.20;;;;;;5097960;28;20051;-76
2023/10/23 03:54:22;;;;;;;12.63;5.90;;;435.60;2355.20;;;;;;5099209;28;20028;-75
2023/10/23 03:56:48;;;;;;;9.32;5.53;;;435.60;2355.20;;;;;;5104110;28;20055;-76
2023/10/23 03:59:14;;;;;;;8.70;6.00;;;435.60;2355.20;;;;;;5103353;28;20469;-75
2023/10/23 04:01:40;;;;;;;10.55;5.78;;;435.50;2355.20;;;;;;5104853;28;20019;-75
2023/10/23 04:04:07;;;;;;;9.32;4.97;;;435.50;2355.20;;;;;;5102699;28;20020;-75
2023/10/23 04:06:32;;;;;;;10.70;5.88;;;435.50;2355.20;;;;;;5103005;28;20070;-75
2023/10/23 04:08:58;;;;;;;11.10;5.60;;;435.50;2355.20;;;;;;5109152;28;20043;-75
2023/10/23 04:11:25;;;;;;;13.88;5.72;;;435.50;2355.20;;;;;;5100362;28;20444;-75
2023/10/23 04:13:50;;;;;;;8.45;5.93;;;435.60;2355.20;;;;;;5085221;28;20073;-75
2023/10/23 04:16:16;;;;;;;13.77;6.03;;;435.60;2355.20;;;;;;5106407;28;20024;-75
2023/10/23 04:18:43;;;;;;;10.38;5.85;;;435.60;2355.20;;;;;;5101227;28;20384;-75
2023/10/23 04:21:11;;;;;;;11.50;5.75;;;435.50;2355.20;;;;;;5101870;28;20036;-75
2023/10/23 04:23:38;;;;;;;12.40;6.55;;;435.40;2355.20;;;;;;5080072;28;20023;-75
2023/10/23 04:26:05;;;;;;;10.00;6.05;;;435.50;2355.20;;;;;;5104291;28;20028;-76
2023/10/23 04:28:31;;;;;;;9.43;6.13;;;;;;;;;;5106562;28;20461;-75
2023/10/23 04:30:57;;;;;;;12.00;5.88;;;435.50;2355.20;;;;;;5099646;28;20031;-75
2023/10/23 04:33:23;;;;;;;14.93;6.05;;;435.50;2355.20;;;;;;5089417;28;20028;-75
2023/10/23 04:35:55;;;;;;;16.27;7.25;;;435.50;2355.20;;;;;;5094833;28;20149;-75
2023/10/23 04:38:21;;;;;;;11.80;6.13;;;435.50;2355.20;;;;;;5097987;28;20114;-75
2023/10/23 04:40:47;;;;;;;12.43;6.88;;;435.40;2355.20;;;;;;5099452;28;20027;-75
2023/10/23 04:43:13;;;;;;;12.15;6.93;;;435.30;2355.20;;;;;;5104601;28;20023;-75
2023/10/23 04:45:40;;;;;;;10.63;6.38;;;435.20;2355.20;;;;;;5099979;28;20435;-75
2023/10/23 04:48:06;;;;;;;9.90;6.20;;;435.30;2355.20;;;;;;5102969;28;20020;-75
2023/10/23 04:50:33;;;;;;;10.63;5.70;;;435.30;2355.20;;;;;;5099201;28;20024;-75
2023/10/23 04:53:01;;;;;;;10.02;6.22;;;435.20;2355.20;;;;;;5092705;28;20040;-74
2023/10/23 04:55:35;;;;;;;8.95;5.63;;;410.50;2355.20;;;;;;5088617;28;20107;-75
2023/10/23 04:58:02;;;;;;;11.20;6.28;;;410.20;2355.20;;;;;;5092664;28;20558;-75
2023/10/23 05:00:28;;;;;;;13.57;6.20;;;410.00;2355.20;;;;;;5088963;28;20054;-74
2023/10/23 05:02:54;;;;;;;11.98;6.07;;;410.00;2355.20;;;;;;5092724;28;20077;-75
2023/10/23 05:05:20;;;;;;;9.50;5.63;;;409.70;2355.20;;;;;;5090498;28;20032;-75
2023/10/23 05:07:46;;;;;;;14.88;6.78;;;409.60;2355.20;;;;;;5095252;28;20016;-75
2023/10/23 05:10:12;;;;;;;13.82;6.05;;;384.90;2329.60;;;;;;5096837;28;20082;-75
2023/10/23 05:12:38;;;;;;;17.00;7.35;;;384.90;2329.60;;;;;;5091919;28;20020;-75
2023/10/23 05:15:08;;;;;;;11.48;7.18;;;384.70;2329.60;;;;;;5087873;28;20485;-74
2023/10/23 05:17:34;;;;;;;11.15;7.13;;;384.70;2329.60;;;;;;5092188;28;20099;-75
2023/10/23 05:20:01;;;;;;;9.98;6.90;;;384.80;2329.60;;;;;;5066001;28;20056;-75
2023/10/23 05:22:27;;;;;;;9.88;6.68;;;384.90;2329.60;;;;;;5088700;28;20099;-75
2023/10/23 05:24:52;;;;;;;16.45;6.65;;;409.70;2355.20;;;;;;5085692;28;20143;-75
2023/10/23 05:27:18;;;;;;;10.95;6.85;;;409.70;2355.20;;;;;;5091389;28;20024;-75
2023/10/23 05:29:44;;;;;;;11.98;7.20;;;409.60;2355.20;;;;;;5087257;28;20555;-75
2023/10/23 05:32:09;;;;;;;12.95;7.68;;;409.70;2355.20;;;;;;5084191;28;20630;-76
2023/10/23 05:34:35;;;;;;;12.25;6.60;;;409.70;2355.20;;;;;;5085242;28;20020;-79
2023/10/23 05:37:01;;;;;;;11.38;6.93;;;409.80;2355.20;;;;;;5084017;28;20052;-75
2023/10/23 05:39:30;;;;;;;9.93;6.28;;;410.00;2355.20;;;;;;5087282;28;20028;-75
2023/10/23 05:41:56;;;;;;;11.38;7.18;;;410.10;2355.20;;;;;;5084906;28;20107;-75
2023/10/23 05:44:22;;;;;;;8.70;6.88;;;410.20;2355.20;;;;;;5086631;28;20095;-78
2023/10/23 05:46:47;;;;;;;12.85;7.28;;;410.40;2355.20;;;;;;5072455;28;20043;-76
2023/10/23 05:49:13;;;;;;;9.40;6.65;;;435.30;2355.20;;;;;;5076359;28;20543;-76
2023/10/23 05:51:39;;;;;;;16.25;7.05;;;435.50;2355.20;;;;;;5073050;28;20478;-77
2023/10/23 05:54:04;;;;;;;9.98;6.85;;;435.50;2355.20;;;;;;5098695;28;20032;-76
2023/10/23 05:56:30;;;;;;;9.48;6.55;;;435.60;2355.20;;;;;;5095456;28;20020;-75
2023/10/23 05:58:56;;;;;;;13.60;7.35;;;435.90;2355.20;;;;;;5098953;28;20029;-76
2023/10/23 06:01:22;;;;;;;9.80;6.75;;;435.90;2355.20;;;;;;5106020;28;20028;-76
2023/10/23 06:03:47;;;;;;;11.65;7.38;;;435.90;2355.20;;;;;;5093589;28;20024;-77
2023/10/23 06:06:13;;;;;;;14.07;8.48;;;435.90;2355.20;;;;;;5084175;28;20032;-77
2023/10/23 06:08:40;;;;;;;14.40;7.78;;;435.90;2355.20;;;;;;5065504;28;20041;-76
2023/10/23 06:11:10;;;;;;;12.38;7.97;;;436.00;2355.20;;;;;;5073781;28;20048;-75
2023/10/23 06:13:36;;;;;;;12.68;7.05;;;436.10;2355.20;;;;;;5097532;28;20015;-77
2023/10/23 06:16:04;;;;;;;17.00;7.88;;;436.10;2355.20;;;;;;5091059;28;20479;-77
2023/10/23 06:18:36;;;;;;;15.30;7.93;;;436.00;2355.20;;;;;;5086816;28;20032;-82
2023/10/23 06:21:04;;;;;;;14.02;8.25;;;436.00;2355.20;;;;;;5086474;28;20035;-79
2023/10/23 06:23:38;;;;;;;13.27;8.43;;;436.00;2355.20;;;;;;5072348;28;20046;-78
2023/10/23 06:26:04;;;;;;;12.93;8.13;;;460.80;2380.80;;;;;;5080986;28;20035;-77
2023/10/23 06:28:31;;;;;;;15.40;8.20;;;460.80;2380.80;;;;;;5082120;28;20023;-77
2023/10/23 06:31:04;;;;;;;18.20;10.13;;;460.90;2380.80;;;;;;5074303;28;20024;-77
2023/10/23 06:33:29;;;;;;;14.85;9.55;;;461.00;2380.80;;;;;;5093479;28;20016;-78
2023/10/23 06:35:58;;;;;;;13.73;7.45;;;460.90;2380.80;;;;;;5092214;28;20050;-78
2023/10/23 06:38:25;;;;;;;13.68;7.70;;;461.00;2380.80;;;;;;5074661;28;20032;-78
2023/10/23 06:40:50;;;;;;;14.90;7.57;;;461.10;2380.80;;;;;;5068989;28;20705;-78
2023/10/23 06:43:16;;;;;;;12.70;7.45;;;461.10;2380.80;;;;;;5077068;28;20077;-78
2023/10/23 06:45:42;;;;;;;10.15;7.00;;;461.10;2380.80;;;;;;5092447;28;20481;-77
2023/10/23 06:48:08;;;;;;;11.18;7.07;;;461.00;2380.80;;;;;;5073094;28;20103;-80
2023/10/23 06:50:34;;;;;;;9.32;6.57;;;461.00;2380.80;;;;;;5091379;28;20556;-79
2023/10/23 06:52:59;;;;;;;12.63;7.22;;;460.80;2380.80;;;;;;5086774;28;20048;-78
2023/10/23 06:55:27;;;;;;;10.43;7.18;;;460.90;2380.80;;;;;;5105833;28;20035;-80
2023/10/23 06:57:54;;;;;;;11.25;6.72;;;461.00;2380.80;;;;;;5083784;28;20021;-77
2023/10/23 07:00:20;;;;;;;11.70;6.47;;;461.10;2380.80;;;;;;5091084;28;20032;-77
2023/10/23 07:02:49;;;;;;;10.95;7.20;;;461.20;2380.80;;;;;;5084623;28;20467;-78
2023/10/23 07:05:15;;;;;;;10.57;6.47;;;461.20;2380.80;;;;;;5064629;28;20126;-77
2023/10/23 07:07:41;;;;;;;12.30;5.82;;;461.30;2380.80;;;;;;5068631;28;20167;-77
2023/10/23 07:10:07;;;;;;;11.90;6.43;;;461.40;2380.80;;;;;;5075010;28;20027;-76
2023/10/23 07:12:33;;;;;;;8.10;5.57;;;461.50;2380.80;;;;;;5070449;28;20051;-76
2023/10/23 07:14:58;;;;;;;15.68;6.40;;;461.50;2380.80;;;;;;5090169;28;20059;-78
2023/10/23 07:17:24;;;;;;;11.05;6.28;;;;;;;;;;5072146;28;20033;-77
2023/10/23 07:19:51;;;;;;;8.30;5.57;;;;;;;;;;5086469;28;20020;-76
2023/10/23 07:22:17;;;;;;;11.00;5.63;;;486.60;2380.80;;;;;;5092869;28;20061;-75
2023/10/23 07:24:43;;;;;;;10.88;5.07;;;486.70;2380.80;;;;;;5085871;28;20040;-76
2023/10/23 07:27:11;;;;;;;17.15;5.28;;;486.70;2380.80;;;;;;5088159;28;20032;-75
2023/10/23 07:29:38;;;;;;;8.95;4.60;;;;;;;;;;5073495;28;20047;-78
2023/10/23 07:32:04;;;;;;;9.60;5.28;;;;;;;;;;5093208;28;20023;-74
2023/10/23 07:34:30;;;;;;;6.35;4.70;;;487.00;2380.80;;;;;;5091845;28;20067;-75
2023/10/23 07:36:55;;;;;;;9.57;4.43;;;486.90;2380.80;;;;;;5094218;28;20020;-76
2023/10/23 07:39:21;;;;;;;7.75;3.92;;;486.90;2380.80;;;;;;5092557;28;20477;-76
2023/10/23 07:41:47;;;;;;;9.00;4.90;;;487.00;2380.80;;;;;;5068961;28;20032;-76
2023/10/23 07:44:13;;;;;;;8.07;4.07;;;487.00;2380.80;;;;;;5087629;28;20051;-76
2023/10/23 07:46:38;;;;;;;16.25;5.25;;;486.90;2380.80;;;;;;5080881;28;20029;-76
2023/10/23 07:49:04;;;;;;;16.25;7.75;;;487.00;2380.80;;;;;;5088742;28;20450;-77
2023/10/23 07:51:30;;;;;;;15.55;5.28;;;487.10;2380.80;;;;;;5087480;28;20078;-76
2023/10/23 07:53:56;;;;;;;6.75;4.50;;;487.10;2380.80;;;;;;5091083;28;20040;-76
2023/10/23 07:56:22;;;;;;;6.82;3.78;;;487.30;2380.80;;;;;;5084480;28;20024;-79
2023/10/23 07:58:47;;;;;;;7.38;4.25;;;487.30;2380.80;;;;;;5080546;28;20025;-79
2023/10/23 08:01:13;;;;;;;9.00;4.28;;;487.20;2380.80;;;;;;5069390;28;20067;-78
2023/10/23 08:03:39;;;;;;;11.70;3.72;;;487.30;2380.80;;;;;;5097715;28;20032;-77
2023/10/23 08:06:07;;;;;;;8.02;2.58;;;512.00;2380.80;;;;;;5089145;28;20447;-78
2023/10/23 08:08:35;;;;;;;7.22;2.20;;;512.00;2380.80;;;;;;5093864;28;20024;-78
2023/10/23 08:11:06;;;;;;;5.28;2.50;;;512.00;2380.80;;;;;;5088955;28;20416;-78
2023/10/23 08:13:33;;;;;;;8.02;3.72;;;512.20;2380.80;;;;;;5069534;28;20604;-79
2023/10/23 08:15:58;;;;;;;7.43;2.88;;;512.30;2380.80;;;;;;5087472;28;20031;-77
2023/10/23 08:18:24;;;;;;;9.70;3.53;;;512.40;2380.80;;;;;;5075026;28;20028;-77
2023/10/23 08:20:50;;;;;;;8.85;3.35;;;512.80;2380.80;;;;;;5084551;28;20024;-77
2023/10/23 08:23:16;;;;;;;4.22;2.85;;;512.90;2380.80;;;;;;5089053;28;20039;-80
2023/10/23 08:25:44;;;;;;;9.82;3.45;;;537.60;2406.40;;;;;;5086973;28;20034;-76
2023/10/23 08:28:10;;;;;;;8.60;3.85;;;537.70;2406.40;;;;;;5089426;28;20023;-76
2023/10/23 08:30:35;;;;;;;7.25;3.40;;;537.80;2406.40;;;;;;5088525;28;20021;-75
2023/10/23 08:33:03;;;;;;;7.10;3.15;;;538.00;2406.40;;;;;;5081271;28;20047;-75
2023/10/23 08:35:29;;;;;;;9.80;3.78;;;538.00;2406.40;;;;;;5099352;28;20115;-76
2023/10/23 08:37:55;;;;;;;6.38;3.45;;;538.00;2406.40;;;;;;5091022;28;20091;-76
2023/10/23 08:40:24;;;;;;;7.40;3.45;;;538.10;2406.40;;;;;;5094121;28;20435;-75
2023/10/23 08:42:49;;;;;;;7.85;3.80;;;538.10;2406.40;;;;;;5082750;28;20028;-75
2023/10/23 08:45:16;;;;;;;7.25;3.80;;;538.20;2406.40;;;;;;5088708;28;20036;-75
2023/10/23 08:47:43;;;;;;;7.55;3.88;;;538.30;2406.40;;;;;;5091759;28;20016;-75
2023/10/23 08:50:09;;;;;;;6.93;3.55;;;538.50;2406.40;;;;;;5075289;28;20043;-75
2023/10/23 08:52:47;;;;;;;5.30;3.00;;;538.50;2406.40;;;;;;5089380;28;20044;-75
2023/10/23 08:55:14;;;;;;;6.68;2.85;;;563.30;2432.00;;;;;;5093056;28;20063;-75
2023/10/23 08:57:51;;;;;;;5.95;2.60;;;563.30;2432.00;;;;;;5077683;28;20024;-75
2023/10/23 09:00:17;;;;;;;4.93;2.70;;;563.60;2432.00;;;;;;5099955;28;20035;-74
2023/10/23 09:02:42;;;;;;;4.22;2.30;;;563.70;2432.00;;;;;;5089598;28;20099;-74
2023/10/23 09:05:08;;;;;;;6.47;2.65;;;563.90;2432.00;;;;;;5081245;28;20444;-74
2023/10/23 09:07:35;;;;;;;6.80;2.85;;;;;;;;;;5082071;28;20024;-75
2023/10/23 09:10:03;;;;;;;4.30;2.28;;;;;;;;;;5087345;28;20023;-75
2023/10/23 09:12:31;;;;;;;6.70;3.22;;;589.20;2432.00;;;;;;5091597;28;20024;-75
2023/10/23 09:14:56;;;;;;;5.10;3.03;;;589.10;2432.00;;;;;;5094616;28;20072;-74
2023/10/23 09:17:23;;;;;;;6.78;3.40;;;589.50;2432.00;;;;;;5086715;28;20103;-75
2023/10/23 09:19:49;;;;;;;5.50;2.80;;;614.40;2432.00;;;;;;5090490;28;20106;-75
2023/10/23 09:22:14;;;;;;;8.25;3.47;;;614.50;2432.00;;;;;;5084903;28;20097;-74
2023/10/23 09:24:41;;;;;;;7.05;2.60;;;614.80;2432.00;;;;;;5087700;28;20065;-75
2023/10/23 09:27:07;;;;;;;5.80;3.35;;;615.00;2432.00;;;;;;5086033;28;20035;-74
2023/10/23 09:29:34;;;;;;;7.45;2.63;;;615.20;2432.00;;;;;;5089137;28;20028;-73
2023/10/23 09:32:00;;;;;;;8.40;3.13;;;640.10;2432.00;;;;;;5086451;28;20381;-74
2023/10/23 09:34:26;;;;;;;11.85;2.88;;;640.30;2432.00;;;;;;5088759;28;20030;-74
2023/10/23 09:36:52;;;;;;;9.68;3.10;;;640.20;2432.00;;;;;;5089483;28;20024;-73
2023/10/23 09:39:19;;;;;;;5.25;2.80;;;640.40;2432.00;;;;;;5087872;28;20028;-75
2023/10/23 09:41:45;;;;;;;5.95;2.97;;;640.70;2432.00;;;;;;5080158;28;20032;-76
2023/10/23 09:44:13;;;;;;;7.65;2.92;;;665.90;2432.00;;;;;;5086193;28;20029;-75
2023/10/23 09:46:39;;;;;;;6.28;3.08;;;666.00;2432.00;;;;;;5092924;28;20027;-75
2023/10/23 09:49:09;;;;;;;6.50;3.08;;;666.30;2432.00;;;;;;5085941;28;20091;-75
2023/10/23 09:51:40;;;;;;;4.63;2.80;;;691.20;2432.00;;;;;;5085233;28;20017;-74
2023/10/23 09:54:19;;;;;;;6.85;2.45;;;691.20;2329.60;;;;;;5087507;28;20115;-74
2023/10/23 09:56:51;;;;;;;4.25;1.88;;;691.40;2278.40;;;;;;5095969;28;20073;-76
2023/10/23 09:59:20;;;;;;;6.65;2.65;;;691.60;2201.60;;;;;;5082646;28;20416;-74
2023/10/23 10:01:52;;;;;;;6.32;3.05;;;691.70;2227.20;;;;;;5093262;28;20048;-73
2023/10/23 10:04:33;;;;;;;6.00;2.50;;;691.60;2252.80;;;;;;5088056;28;20065;-73
2023/10/23 10:07:21;;;;;;;5.22;2.25;;;691.80;2227.20;;;;;;5081090;28;20016;-74
2023/10/23 10:09:47;;;;;;;5.70;2.10;;;691.80;2201.60;;;;;;5102536;28;20504;-75
2023/10/23 10:12:13;;;;;;;6.68;2.28;;;692.10;2176.00;;;;;;5091161;28;20035;-74
2023/10/23 10:14:41;;;;;;;6.35;2.40;;;;;;;;;;5095108;28;20024;-74
2023/10/23 10:17:09;;;;;;;5.53;2.30;;;716.90;2099.20;;;;;;5093504;28;20477;-74
2023/10/23 10:19:37;;;;;;;3.80;1.70;;;692.10;2124.80;;;;;;5094678;28;20069;-74
2023/10/23 10:22:23;;;;;;;3.92;1.92;;;716.90;2048.00;;;;;;5088419;28;20027;-74
2023/10/23 10:24:50;;;;;;;5.68;1.80;;;716.90;2022.40;;;;;;5070756;28;20501;-74
2023/10/23 10:27:16;;;;;;;3.03;1.80;;;716.90;2022.40;;;;;;5092069;28;20040;-74
2023/10/23 10:29:42;;;;;;;3.70;1.60;;;716.90;2022.40;;;;;;5063140;28;20020;-74
2023/10/23 10:32:10;;;;;;;7.80;2.45;;;717.10;2022.40;;;;;;5095362;28;20335;-74
2023/10/23 10:34:56;;;;;;;4.45;2.10;;;716.90;1996.80;;;;;;5087970;28;20103;-74
2023/10/23 10:37:25;;;;;;;5.80;1.95;;;692.00;1996.80;;;;;;5084923;28;20059;-73
2023/10/23 10:39:50;;;;;;;3.58;1.85;;;717.10;1945.60;;;;;;5087993;28;20027;-74
2023/10/23 10:42:17;;;;;;;6.35;2.03;;;717.40;1920.00;;;;;;5087366;28;20385;-74
2023/10/23 10:44:59;;;;;;;5.78;2.17;;;717.40;1920.00;;;;;;5085731;28;20031;-73
2023/10/23 10:47:54;;;;;;;4.60;1.98;;;717.30;1920.00;;;;;;5092402;28;20032;-75
2023/10/23 10:50:34;;;;;;;4.28;2.00;;;717.40;1945.60;;;;;;5091308;28;20031;-73
2023/10/23 10:53:02;;;;;;;3.92;2.03;;;717.40;1894.40;;;;;;5090299;28;20051;-75
2023/10/23 10:55:28;;;;;;;8.73;3.20;;;717.50;1868.80;;;;;;5098291;28;20021;-74
2023/10/23 10:57:55;;;;;;;7.78;2.70;;;717.50;1894.40;;;;;;5096012;28;20456;-74
2023/10/23 11:00:22;;;;;;;5.15;2.00;;;717.60;1894.40;;;;;;5085943;28;20099;-73
2023/10/23 11:02:48;;;;;;;5.28;2.50;;;717.60;1843.20;;;;;;5085113;28;20024;-73
2023/10/23 11:05:15;;;;;;;7.15;2.53;;;717.70;1843.20;;;;;;5091301;28;20032;-75
2023/10/23 11:07:41;;;;;;;4.13;1.95;;;742.40;1868.80;;;;;;5082295;28;20039;-73
2023/10/23 11:10:08;;;;;;;5.80;2.42;;;717.70;1843.20;;;;;;5089000;28;20077;-74
2023/10/23 11:12:34;;;;;;;8.85;2.75;;;742.40;1868.80;;;;;;5088426;28;20042;-74
2023/10/23 11:14:59;;;;;;;5.85;2.25;;;742.40;1843.20;;;;;;5089549;28;20678;-75
2023/10/23 11:17:25;;;;;;;4.55;2.10;;;742.40;1868.80;;;;;;5094945;28;20488;-74
2023/10/23 11:19:51;;;;;;;4.13;1.83;;;717.70;1817.60;;;;;;5098201;28;20078;-74
2023/10/23 11:22:23;;;;;;;6.05;2.00;;;717.60;1817.60;;;;;;5086914;28;20024;-74
2023/10/23 11:24:49;;;;;;;4.50;2.00;;;717.70;1817.60;;;;;;5086646;28;20149;-73
2023/10/23 11:27:15;;;;;;;6.20;1.90;;;717.70;1766.40;;;;;;5096726;28;20470;-73
2023/10/23 11:29:46;;;;;;;5.82;1.92;;;742.40;1792.00;;;;;;5087427;28;20534;-73
2023/10/23 11:32:13;;;;;;;6.25;2.05;;;717.50;1766.40;;;;;;5093083;28;20016;-74
2023/10/23 11:34:39;;;;;;;8.70;2.35;;;717.60;1792.00;;;;;;5089580;28;20060;-74
2023/10/23 11:37:06;;;;;;;6.85;1.80;;;717.70;1766.40;;;;;;5089468;28;20046;-74
2023/10/23 11:39:34;;;;;;;5.07;2.17;;;717.70;1740.80;;;;;;5091777;28;20073;-74
2023/10/23 11:42:00;;;;;;;3.92;1.80;;;717.70;1740.80;;;;;;5087190;28;20024;-74
2023/10/23 11:44:30;;;;;;;3.67;1.73;;;742.40;1766.40;;;;;;5096048;28;20027;-75
2023/10/23 11:47:01;;;;;;;5.07;2.17;;;742.40;1792.00;;;;;;5092754;28;20017;-74
2023/10/23 11:49:27;;;;;;;3.75;1.90;;;742.40;1766.40;;;;;;5091459;28;20051;-74
2023/10/23 11:51:56;;;;;;;2.85;1.77;;;717.20;1792.00;;;;;;5089768;28;20028;-74
2023/10/23 11:54:24;;;;;;;5.22;1.73;;;717.40;1766.40;;;;;;5095743;28;20099;-74
2023/10/23 11:56:51;;;;;;;4.15;1.90;;;717.50;1740.80;;;;;;5098899;28;20017;-74
2023/10/23 11:59:21;;;;;;;6.13;1.92;;;717.40;1740.80;;;;;;5087923;28;20016;-74
2023/10/23 12:01:49;;;;;;;7.70;2.20;;;717.50;1740.80;;;;;;5089997;28;20065;-74
2023/10/23 12:04:15;;;;;;;6.72;2.10;;;717.70;1715.20;;;;;;5086148;28;20056;-74
2023/10/23 12:06:41;;;;;;;4.70;2.00;;;717.40;1740.80;;;;;;5099406;28;20055;-73
2023/10/23 12:09:09;;;;;;;4.20;1.85;;;717.40;1715.20;;;;;;5084860;28;20027;-74
2023/10/23 12:11:35;;;;;;;8.27;1.83;;;717.40;1740.80;;;;;;5089790;28;20070;-73
2023/10/23 12:14:02;;;;;;;4.47;2.60;;;717.40;1766.40;;;;;;5095562;28;20024;-74
2023/10/23 12:16:30;;;;;;;23.15;12.50;;;717.40;1766.40;;;;;;5096131;28;20024;-74